Sao Lourenco da Serra, Brazil
Current Conditions -  °F | °C
As of 4:00 PM on Saturday 25 Oct 2014 (Local Time) from SBSP Reporting Station
Broken Clouds Broken Clouds  
Wind Chill: 79°   Ceiling: 4000
Heat Index: 80°   Visibility: 6mi
Dew Point: 57°   Wind: 12mph
Humidity: 47%   Direction: 310°NW
Pressure: 30"   Gusts: NA
Location:  23.86°S, 46.94°W
Report Text: SBSP 251800Z 31010KT 9999 BKN040 BKN050 BKN080 26/14 Q1016
Loading
Personal Weather Stations






























Interactive Weather Map
Tropical Storm Tracking
New forecast layout! Learn more

10-Day Weather Forecast

Advertisements
Track Severe Weather on mobile